Vineland Cherry Ave.

*Note: All times are displayed in the local standard time of the station location.
**Rain - Equipment is designed to accurately record liquid precipitation; under conditions when precipitation is not in liquid form, the data displayed may not properly reflect rainfall values.

Date Max Temp
(°C)
Min Temp
(°C)
Avg Temp
(°C)
Rain (mm) Avg RH (%) Solar Rad (kJ/m2)
Fri, Dec 14, 2018 6.8 0.3 4.0 2.2 84.9 813.2
Thu, Dec 13, 2018 6.2 -1.6 1.2 1.0 92.5 2331.7
Wed, Dec 12, 2018 2.1 -5.4 -0.7 0.0 85.1 1396.9
Tue, Dec 11, 2018 0.0 -2.0 -0.9 0.0 81.2 379.1
Mon, Dec 10, 2018 1.3 -1.9 -0.3 0.0 79.4 912.9
Sun, Dec 09, 2018 1.2 -6.9 -2.6 0.0 74.8 4453.2
Sat, Dec 08, 2018 0.1 -5.8 -3.0 0.0 75.4 4238.1
DateTime Avg Temp (°C) Rain (mm) RH (%) Solar Rad (kJ/m2)
Sat, Dec 15, 2018 17:00 2.9 0.0 88.6 8.3
Sat, Dec 15, 2018 16:00 3.2 0.0 88.0 64.4
Sat, Dec 15, 2018 15:00 3.5 0.0 87.0 160.5
Sat, Dec 15, 2018 14:00 3.7 0.0 85.9 248.6
Sat, Dec 15, 2018 13:00 3.9 0.0 86.4 370.8
Sat, Dec 15, 2018 12:00 3.4 0.0 88.6 325.1
Sat, Dec 15, 2018 11:00 2.8 0.0 93.8 236.5
Sat, Dec 15, 2018 10:00 1.4 0.0 98.2 147.1
Sat, Dec 15, 2018 09:00 0.5 0.0 98.4 55.1
Sat, Dec 15, 2018 08:00 1.1 0.0 98.5 2.2
Sat, Dec 15, 2018 07:00 0.1 0.0 98.8 0.0
Sat, Dec 15, 2018 06:00 -0.3 0.0 98.7 0.0
Sat, Dec 15, 2018 05:00 -0.3 0.0 98.4 0.0
Sat, Dec 15, 2018 04:00 0.0 0.0 97.7 0.0
Sat, Dec 15, 2018 03:00 1.2 0.0 96.5 0.0
Sat, Dec 15, 2018 02:00 1.4 0.0 95.3 0.0
Sat, Dec 15, 2018 01:00 2.9 0.0 92.2 0.0
Sat, Dec 15, 2018 00:00 4.8 0.0 86.8 0.0
Fri, Dec 14, 2018 23:00 5.0 0.0 85.6 0.0
Fri, Dec 14, 2018 22:00 5.0 0.0 83.5 0.0
Fri, Dec 14, 2018 21:00 4.9 0.0 82.1 0.0
Fri, Dec 14, 2018 20:00 3.7 0.0 89.4 0.0
Fri, Dec 14, 2018 19:00 3.1 0.0 89.3 0.0
Fri, Dec 14, 2018 18:00 4.2 0.0 80.6 0.0
Fri, Dec 14, 2018 17:00 6.1 0.0 73.5 30.5
Fri, Dec 14, 2018 16:00 6.6 0.0 74.8 103.4
Fri, Dec 14, 2018 15:00 6.0 0.0 80.9 152.9
Fri, Dec 14, 2018 14:00 5.5 0.0 85.2 169.9
Fri, Dec 14, 2018 13:00 5.0 0.0 86.8 121.6
Fri, Dec 14, 2018 12:00 4.6 0.2 89.9 104.2
Fri, Dec 14, 2018 11:00 4.3 1.4 90.0 52.4
Fri, Dec 14, 2018 10:00 4.3 0.6 85.1 49.9
Fri, Dec 14, 2018 09:00 4.4 0.0 81.0 28.4
Fri, Dec 14, 2018 08:00 4.1 0.0 82.5 0.0
Fri, Dec 14, 2018 07:00 3.8 0.0 81.7 0.0
Fri, Dec 14, 2018 06:00 3.2 0.0 83.2 0.0
Fri, Dec 14, 2018 05:00 2.7 0.0 84.2 0.0
Fri, Dec 14, 2018 04:00 1.7 0.0 87.9 0.0
Fri, Dec 14, 2018 03:00 0.5 0.0 93.5 0.0
Fri, Dec 14, 2018 02:00 1.3 0.0 91.3 0.0
Fri, Dec 14, 2018 01:00 2.0 0.0 87.8 0.0
Fri, Dec 14, 2018 00:00 2.0 0.0 86.2 0.0
Thu, Dec 13, 2018 23:00 2.2 0.0 84.4 0.0
Thu, Dec 13, 2018 22:00 1.1 0.0 90.1 0.0
Thu, Dec 13, 2018 21:00 0.6 0.0 94.7 0.0
Thu, Dec 13, 2018 20:00 0.2 0.0 96.0 0.0
Thu, Dec 13, 2018 19:00 1.0 0.0 95.6 0.0
Thu, Dec 13, 2018 18:00 1.1 0.0 94.6 0.0


asterix Register now to access more data! asterix